Time;durP1;ratioP1;P1;durP2;ratioP2;P2;SDS_P1;SDS_P2;PMS_P1;PMS_P2;Temp;Humidity;BMP_temperature;BMP_pressure;BME280_temperature;BME280_humidity;BME280_pressure;Samples;Min_cycle;Max_cycle;Signal;HPM_P1;HPM_P2
2023/06/27 04:02:54;;;;;;;1.50;0.87;;;15.60;99.90;;;;;;4944854;29;20479;-66
2023/06/27 04:05:20;;;;;;;4.17;1.07;;;15.70;99.90;;;;;;4950615;29;21008;-66
2023/06/27 04:07:47;;;;;;;0.90;0.90;;;15.80;99.90;;;;;;4951146;28;20988;-67
2023/06/27 04:10:14;;;;;;;1.30;0.83;;;15.80;99.90;;;;;;4954428;29;20547;-67
2023/06/27 04:12:40;;;;;;;1.10;1.10;;;15.80;99.90;;;;;;4951800;29;20851;-67
2023/06/27 04:15:08;;;;;;;1.03;0.87;;;15.90;99.90;;;;;;4953533;29;20475;-67
2023/06/27 04:17:35;;;;;;;2.90;2.33;;;15.90;99.90;;;;;;4954633;29;20468;-67
2023/06/27 04:20:04;;;;;;;0.80;0.80;;;16.00;99.90;;;;;;4954979;29;20464;-67
2023/06/27 04:22:30;;;;;;;0.77;0.77;;;16.10;99.90;;;;;;4954861;29;20510;-68
2023/06/27 04:24:57;;;;;;;1.23;1.23;;;16.20;99.90;;;;;;5008811;23;20498;-69
2023/06/27 04:27:24;;;;;;;0.80;0.80;;;16.80;99.90;;;;;;5012056;28;20909;-69
2023/06/27 04:29:50;;;;;;;0.93;0.90;;;17.50;99.90;;;;;;5012704;28;20462;-68
2023/06/27 04:32:17;;;;;;;1.50;0.73;;;18.30;99.90;;;;;;5013002;28;20490;-68
2023/06/27 04:34:44;;;;;;;0.80;0.80;;;18.90;99.90;;;;;;5000154;28;20831;-68
2023/06/27 04:37:12;;;;;;;2.63;0.97;;;19.00;99.90;;;;;;4993784;28;20472;-68
2023/06/27 04:39:39;;;;;;;0.57;0.40;;;19.50;99.90;;;;;;4993472;28;20829;-69
2023/06/27 04:42:06;;;;;;;0.83;0.83;;;20.10;99.90;;;;;;4988325;28;20486;-69
2023/06/27 04:44:32;;;;;;;0.60;0.50;;;20.40;99.90;;;;;;4991118;28;20509;-69
2023/06/27 04:46:59;;;;;;;0.77;0.77;;;20.10;99.90;;;;;;4993292;28;20811;-69
2023/06/27 04:49:26;;;;;;;0.70;0.70;;;19.60;99.90;;;;;;4992972;28;20471;-69
2023/06/27 04:51:52;;;;;;;3.80;1.50;;;19.10;99.90;;;;;;4993383;28;20800;-69
2023/06/27 04:54:21;;;;;;;0.93;0.93;;;18.60;99.90;;;;;;4992001;28;20491;-69
2023/06/27 04:56:48;;;;;;;0.47;0.47;;;18.30;99.90;;;;;;4992910;28;20903;-69
2023/06/27 04:59:17;;;;;;;0.97;0.97;;;17.90;99.90;;;;;;4992603;28;20467;-69
2023/06/27 05:01:43;;;;;;;0.87;0.87;;;17.70;99.90;;;;;;4992495;28;20521;-69
2023/06/27 05:04:10;;;;;;;1.27;0.83;;;18.30;99.90;;;;;;4991985;28;20478;-69
2023/06/27 05:06:37;;;;;;;0.87;0.87;;;19.20;99.90;;;;;;4992533;28;20460;-69
2023/06/27 05:09:04;;;;;;;0.60;0.60;;;20.20;99.90;;;;;;4992909;28;20465;-69
2023/06/27 05:11:32;;;;;;;1.70;1.17;;;20.80;99.90;;;;;;4990285;28;20495;-69
2023/06/27 05:13:58;;;;;;;1.63;1.63;;;21.50;99.90;;;;;;4991908;28;21180;-69
2023/06/27 05:16:25;;;;;;;0.30;0.30;;;22.00;99.90;;;;;;4992809;28;20479;-69
2023/06/27 05:18:52;;;;;;;0.50;0.50;;;22.20;99.90;;;;;;4993101;28;20585;-69
2023/06/27 05:21:18;;;;;;;0.57;0.57;;;22.10;99.90;;;;;;4992042;28;20828;-69
2023/06/27 05:23:45;;;;;;;0.73;0.73;;;21.40;99.90;;;;;;4992697;28;20494;-69
2023/06/27 05:26:12;;;;;;;4.13;0.93;;;20.60;99.90;;;;;;4991176;28;20476;-69
2023/06/27 05:28:40;;;;;;;0.83;0.50;;;20.40;99.90;;;;;;4991991;28;20483;-69
2023/06/27 05:31:06;;;;;;;0.60;0.60;;;20.80;99.90;;;;;;4992488;28;20496;-69
2023/06/27 05:33:34;;;;;;;0.63;0.63;;;21.30;99.90;;;;;;4992645;28;20489;-69
2023/06/27 05:36:00;;;;;;;1.30;0.80;;;21.80;99.90;;;;;;4991844;28;20466;-69
2023/06/27 05:38:27;;;;;;;0.63;0.63;;;22.10;99.90;;;;;;4991188;28;20476;-69
2023/06/27 05:40:54;;;;;;;0.80;0.80;;;22.30;99.90;;;;;;4992226;28;20640;-69
2023/06/27 05:43:20;;;;;;;1.90;0.77;;;22.60;99.90;;;;;;4986396;28;20820;-69
2023/06/27 05:45:48;;;;;;;0.93;0.70;;;23.10;99.90;;;;;;4992277;28;20472;-69
2023/06/27 05:48:15;;;;;;;0.70;0.70;;;23.10;99.90;;;;;;4992172;28;20476;-69
2023/06/27 05:50:42;;;;;;;0.97;0.50;;;23.20;99.90;;;;;;4991831;28;20492;-69
2023/06/27 05:53:08;;;;;;;1.03;0.80;;;23.40;99.90;;;;;;4991271;28;20489;-69
2023/06/27 05:55:35;;;;;;;0.70;0.70;;;22.80;99.90;;;;;;4991671;28;20824;-69
2023/06/27 05:58:02;;;;;;;1.07;0.73;;;22.40;99.90;;;;;;4991723;28;20817;-69
2023/06/27 06:00:29;;;;;;;0.67;0.67;;;22.50;99.90;;;;;;4992035;28;20475;-69
2023/06/27 06:02:57;;;;;;;1.17;0.90;;;22.40;99.90;;;;;;4992117;28;20464;-69
2023/06/27 06:05:23;;;;;;;1.67;0.70;;;22.50;99.90;;;;;;4989306;28;20564;-69
2023/06/27 06:07:51;;;;;;;1.33;1.30;;;22.60;99.90;;;;;;4990172;28;20470;-69
2023/06/27 06:10:18;;;;;;;0.50;0.50;;;22.30;99.90;;;;;;4991864;28;20468;-69
2023/06/27 06:12:45;;;;;;;1.90;0.83;;;22.10;99.90;;;;;;4991308;28;20488;-69
2023/06/27 06:15:12;;;;;;;1.70;0.70;;;22.10;99.90;;;;;;4991498;28;20830;-69
2023/06/27 06:17:38;;;;;;;0.60;0.60;;;22.30;99.90;;;;;;4991627;28;20833;-69
2023/06/27 06:20:10;;;;;;;1.07;1.07;;;22.20;99.90;;;;;;4990345;28;20474;-69
2023/06/27 06:22:37;;;;;;;0.63;0.63;;;22.00;99.90;;;;;;4991999;28;20469;-69
2023/06/27 06:25:05;;;;;;;3.07;1.13;;;21.90;99.90;;;;;;4991067;28;20506;-68
2023/06/27 06:27:32;;;;;;;1.00;0.80;;;21.70;99.90;;;;;;4991554;28;20554;-69
2023/06/27 06:29:59;;;;;;;1.23;0.57;;;21.00;99.90;;;;;;4991715;28;20520;-69
2023/06/27 06:32:25;;;;;;;0.80;0.80;;;20.40;99.90;;;;;;4991052;28;20487;-68
2023/06/27 06:34:52;;;;;;;2.67;1.23;;;20.00;99.90;;;;;;4989837;28;20513;-68
2023/06/27 06:37:20;;;;;;;0.50;0.50;;;19.70;99.90;;;;;;4991158;28;20463;-69
2023/06/27 06:39:47;;;;;;;0.70;0.70;;;19.80;99.90;;;;;;4991476;28;20463;-69
2023/06/27 06:42:13;;;;;;;0.53;0.53;;;19.90;99.90;;;;;;4991147;28;20468;-68
2023/06/27 06:44:40;;;;;;;0.57;0.57;;;20.20;99.90;;;;;;4990400;28;21030;-68
2023/06/27 06:47:07;;;;;;;2.00;0.70;;;20.80;99.90;;;;;;4992075;28;20473;-69
2023/06/27 06:49:34;;;;;;;0.70;0.70;;;21.70;99.90;;;;;;4989902;28;20477;-69
2023/06/27 06:52:01;;;;;;;0.57;0.33;;;22.50;99.90;;;;;;4990993;28;20569;-69
2023/06/27 06:54:29;;;;;;;0.50;0.50;;;22.90;99.90;;;;;;4990886;28;20487;-69
2023/06/27 06:56:55;;;;;;;2.73;0.53;;;23.20;99.90;;;;;;4991245;28;20469;-70
2023/06/27 06:59:22;;;;;;;0.40;0.40;;;23.50;99.90;;;;;;4990612;28;20467;-69
2023/06/27 07:01:49;;;;;;;0.40;0.40;;;24.30;99.90;;;;;;4990228;28;20473;-69
2023/06/27 07:04:15;;;;;;;0.73;0.40;;;24.50;99.90;;;;;;4990170;28;21014;-67
2023/06/27 07:06:42;;;;;;;0.40;0.40;;;24.70;99.90;;;;;;4991272;28;20817;-67
2023/06/27 07:09:09;;;;;;;0.33;0.33;;;25.00;99.90;;;;;;4991039;28;20570;-68
2023/06/27 07:11:37;;;;;;;0.40;0.40;;;25.00;99.90;;;;;;4991068;28;20483;-69
2023/06/27 07:14:03;;;;;;;0.67;0.60;;;25.10;99.90;;;;;;4989331;28;20851;-69
2023/06/27 07:16:30;;;;;;;0.20;0.20;;;25.30;99.90;;;;;;4990599;28;20461;-69
2023/06/27 07:18:57;;;;;;;0.40;0.40;;;25.30;99.90;;;;;;4990645;28;20467;-69
2023/06/27 07:21:24;;;;;;;0.30;0.30;;;25.50;99.90;;;;;;4990546;28;21042;-69
2023/06/27 07:23:51;;;;;;;0.40;0.40;;;25.60;99.90;;;;;;4990773;28;20495;-69
2023/06/27 07:26:17;;;;;;;0.40;0.40;;;25.90;99.90;;;;;;4990894;28;20537;-69
2023/06/27 07:28:46;;;;;;;0.40;0.40;;;26.30;99.90;;;;;;4988681;28;20478;-69
2023/06/27 07:31:12;;;;;;;0.43;0.43;;;26.30;99.90;;;;;;4990396;28;20478;-68
2023/06/27 07:33:39;;;;;;;0.50;0.50;;;26.40;99.90;;;;;;4990647;28;20483;-69
2023/06/27 07:36:06;;;;;;;0.60;0.40;;;26.50;99.90;;;;;;4990105;28;20463;-68
2023/06/27 07:38:32;;;;;;;0.40;0.40;;;26.50;99.90;;;;;;4990531;28;20459;-68
2023/06/27 07:40:59;;;;;;;0.30;0.30;;;26.10;99.90;;;;;;4990466;28;20469;-68
2023/06/27 07:43:26;;;;;;;0.40;0.40;;;26.10;99.90;;;;;;4984292;28;20470;-68
2023/06/27 07:45:54;;;;;;;0.30;0.30;;;26.00;99.90;;;;;;4993655;28;20474;-69
2023/06/27 07:48:20;;;;;;;0.47;0.47;;;26.00;99.90;;;;;;4994578;28;20820;-69
2023/06/27 07:50:47;;;;;;;0.53;0.53;;;26.10;99.90;;;;;;4993846;28;20462;-68
2023/06/27 07:53:14;;;;;;;0.43;0.43;;;25.40;99.90;;;;;;4993828;28;20487;-68
2023/06/27 07:55:41;;;;;;;0.60;0.60;;;25.10;99.90;;;;;;4992774;28;20462;-68
2023/06/27 07:58:08;;;;;;;0.50;0.50;;;24.60;99.90;;;;;;4993334;28;20467;-68
2023/06/27 08:00:35;;;;;;;2.20;0.57;;;24.80;99.90;;;;;;4993840;28;20455;-68
2023/06/27 08:03:03;;;;;;;0.40;0.40;;;25.00;99.90;;;;;;4993364;28;20931;-69
2023/06/27 08:05:34;;;;;;;0.70;0.70;;;25.30;99.90;;;;;;4993464;28;20482;-68
2023/06/27 08:08:01;;;;;;;0.70;0.70;;;25.00;99.90;;;;;;4994296;28;20561;-68
2023/06/27 08:10:28;;;;;;;0.70;0.70;;;24.40;99.90;;;;;;4993480;28;20481;-68
2023/06/27 08:12:54;;;;;;;0.83;0.50;;;24.10;99.90;;;;;;4993464;28;20897;-68
2023/06/27 08:15:22;;;;;;;0.50;0.50;;;23.90;99.90;;;;;;4993697;28;20505;-68
2023/06/27 08:17:49;;;;;;;0.77;0.60;;;24.10;99.90;;;;;;4993537;28;20502;-68
2023/06/27 08:20:17;;;;;;;0.20;0.20;;;24.40;99.90;;;;;;4993627;28;20477;-69
2023/06/27 08:22:44;;;;;;;1.80;0.70;;;24.30;99.90;;;;;;4993502;28;20583;-69
2023/06/27 08:25:11;;;;;;;0.50;0.50;;;24.10;99.90;;;;;;4992542;28;21265;-69
2023/06/27 08:27:38;;;;;;;0.57;0.57;;;23.40;99.90;;;;;;4993036;28;20469;-68
2023/06/27 08:30:07;;;;;;;0.30;0.30;;;23.10;99.90;;;;;;4993806;28;20469;-68
2023/06/27 08:32:33;;;;;;;0.73;0.73;;;23.00;99.90;;;;;;4993210;28;20888;-68
2023/06/27 08:35:01;;;;;;;1.27;0.50;;;22.70;99.90;;;;;;4992974;28;20484;-68
2023/06/27 08:37:29;;;;;;;0.70;0.50;;;22.40;99.90;;;;;;4992099;28;20478;-69
2023/06/27 08:39:56;;;;;;;0.43;0.43;;;22.70;99.90;;;;;;4993775;28;20461;-68
2023/06/27 08:42:23;;;;;;;0.43;0.43;;;22.80;99.90;;;;;;4993047;28;20903;-68
2023/06/27 08:44:49;;;;;;;0.93;0.60;;;22.70;99.90;;;;;;4992292;28;20481;-69
2023/06/27 08:47:20;;;;;;;1.40;0.43;;;22.40;99.90;;;;;;4993649;28;20469;-67
2023/06/27 08:49:51;;;;;;;0.23;0.23;;;22.00;99.90;;;;;;4991651;28;20487;-68
2023/06/27 08:52:20;;;;;;;0.60;0.40;;;21.70;99.90;;;;;;4992229;28;20487;-68
2023/06/27 08:54:53;;;;;;;0.30;0.30;;;21.70;99.90;;;;;;4991689;28;20579;-68
2023/06/27 08:57:23;;;;;;;0.70;0.70;;;21.50;99.90;;;;;;4993061;28;20525;-68
2023/06/27 08:59:50;;;;;;;1.50;0.40;;;21.60;99.90;;;;;;4992653;28;20473;-68
2023/06/27 09:02:18;;;;;;;0.50;0.40;;;21.90;99.90;;;;;;4992952;28;20456;-68
2023/06/27 09:04:46;;;;;;;0.50;0.50;;;22.10;99.90;;;;;;4990938;28;20498;-68
2023/06/27 09:07:13;;;;;;;1.03;0.50;;;21.80;99.90;;;;;;4992173;28;20503;-68
2023/06/27 09:09:39;;;;;;;0.93;0.83;;;21.30;99.90;;;;;;4992365;28;20476;-68
2023/06/27 09:12:09;;;;;;;1.63;0.33;;;20.90;99.90;;;;;;4992475;28;20515;-70
2023/06/27 09:14:35;;;;;;;0.73;0.73;;;21.00;99.90;;;;;;4991839;28;20584;-69
2023/06/27 09:17:04;;;;;;;1.53;0.53;;;21.40;99.90;;;;;;4991781;28;20474;-70
2023/06/27 09:19:32;;;;;;;1.43;0.40;;;22.00;99.90;;;;;;4991994;28;20502;-70
2023/06/27 09:22:00;;;;;;;0.40;0.40;;;22.30;99.90;;;;;;4992245;28;20529;-69
2023/06/27 09:24:27;;;;;;;2.47;0.97;;;22.30;99.90;;;;;;4991956;28;20507;-69
2023/06/27 09:26:54;;;;;;;5.43;0.63;;;21.70;99.90;;;;;;4992436;28;20887;-69
2023/06/27 09:29:29;;;;;;;0.53;0.53;;;21.40;99.90;;;;;;4991624;28;20470;-69
2023/06/27 09:32:06;;;;;;;0.43;0.43;;;21.50;99.90;;;;;;4991371;28;20476;-70
2023/06/27 09:34:34;;;;;;;0.70;0.53;;;22.00;99.90;;;;;;4984318;28;20491;-70
2023/06/27 09:37:02;;;;;;;0.20;0.20;;;22.50;99.90;;;;;;4991979;28;20581;-70
2023/06/27 09:39:29;;;;;;;0.70;0.70;;;22.40;99.90;;;;;;4992417;28;20463;-70
2023/06/27 09:41:56;;;;;;;0.50;0.50;;;22.00;99.90;;;;;;4991839;28;20466;-70
2023/06/27 09:44:25;;;;;;;0.57;0.50;;;21.90;99.90;;;;;;4991137;28;20495;-70
2023/06/27 09:46:53;;;;;;;0.57;0.57;;;21.90;99.90;;;;;;4990787;28;20471;-70
2023/06/27 09:49:21;;;;;;;0.40;0.40;;;21.90;99.90;;;;;;4990370;28;20837;-71
2023/06/27 09:51:50;;;;;;;0.40;0.40;;;22.10;99.90;;;;;;4991887;28;20456;-70
2023/06/27 09:54:21;;;;;;;0.63;0.60;;;22.30;99.90;;;;;;4991715;28;20484;-70
2023/06/27 09:56:50;;;;;;;0.40;0.40;;;22.10;99.90;;;;;;4991947;28;20518;-70
2023/06/27 09:59:18;;;;;;;0.30;0.30;;;22.30;99.90;;;;;;4990313;28;20521;-70
2023/06/27 10:01:47;;;;;;;0.30;0.30;;;22.40;99.90;;;;;;4991570;28;20553;-69
2023/06/27 10:04:14;;;;;;;1.10;0.40;;;22.10;99.90;;;;;;4991095;28;20486;-70
2023/06/27 10:06:40;;;;;;;0.60;0.60;;;22.00;99.90;;;;;;4990740;28;20470;-69
2023/06/27 10:09:08;;;;;;;0.43;0.43;;;22.10;99.90;;;;;;4991432;28;20469;-70
2023/06/27 10:11:37;;;;;;;4.60;1.80;;;22.20;99.90;;;;;;4991923;28;20463;-70
2023/06/27 10:14:05;;;;;;;1.43;0.60;;;22.20;99.90;;;;;;4990990;28;20863;-69
2023/06/27 10:16:33;;;;;;;0.50;0.50;;;22.20;99.90;;;;;;4991621;28;20468;-70
2023/06/27 10:19:02;;;;;;;0.40;0.40;;;22.20;99.90;;;;;;4991439;28;20565;-69
2023/06/27 10:21:30;;;;;;;0.50;0.50;;;22.20;99.90;;;;;;4991121;28;20840;-70
2023/06/27 10:24:00;;;;;;;0.50;0.50;;;22.10;99.90;;;;;;4990748;28;20493;-69
2023/06/27 10:26:27;;;;;;;0.50;0.50;;;22.10;99.90;;;;;;4990295;28;20475;-67
2023/06/27 10:28:54;;;;;;;0.50;0.50;;;22.20;99.90;;;;;;4989611;28;20482;-67
2023/06/27 10:31:42;;;;;;;0.57;0.57;;;22.30;99.90;;;;;;5006867;23;20454;-67
2023/06/27 10:34:11;;;;;;;0.77;0.77;;;22.30;99.90;;;;;;5010684;28;20492;-67
2023/06/27 10:36:51;;;;;;;0.50;0.50;;;22.40;99.90;;;;;;5010865;28;20959;-67
2023/06/27 10:39:29;;;;;;;2.40;0.60;;;22.30;99.90;;;;;;5011173;28;20476;-67
2023/06/27 10:42:00;;;;;;;0.43;0.43;;;22.10;99.90;;;;;;5002308;28;20496;-67
2023/06/27 10:44:27;;;;;;;1.03;1.03;;;22.10;99.90;;;;;;4990389;28;20500;-67
2023/06/27 10:47:23;;;;;;;0.50;0.50;;;22.00;99.90;;;;;;4991150;28;20855;-67
2023/06/27 10:49:54;;;;;;;0.40;0.40;;;22.00;99.90;;;;;;4990680;28;20483;-68
2023/06/27 10:52:22;;;;;;;0.40;0.40;;;22.00;99.90;;;;;;4991372;28;20484;-68
2023/06/27 10:55:19;;;;;;;0.50;0.50;;;21.90;99.90;;;;;;4990282;28;20497;-68
2023/06/27 10:57:48;;;;;;;2.53;0.47;;;22.10;99.90;;;;;;4971254;28;20919;-68
2023/06/27 11:00:22;;;;;;;0.53;0.53;;;22.30;99.90;;;;;;4971886;28;20465;-68
2023/06/27 11:02:52;;;;;;;0.40;0.40;;;22.50;99.90;;;;;;4990911;28;20531;-68
2023/06/27 11:05:35;;;;;;;1.17;0.70;;;22.80;99.90;;;;;;4990727;28;20638;-68
2023/06/27 11:08:03;;;;;;;1.73;0.77;;;22.90;99.90;;;;;;4989725;28;20466;-68
2023/06/27 11:10:31;;;;;;;0.30;0.30;;;23.20;99.90;;;;;;4991044;28;20476;-68
2023/06/27 11:13:22;;;;;;;0.50;0.50;;;23.10;99.90;;;;;;4990328;28;20826;-68
2023/06/27 11:15:51;;;;;;;0.20;0.20;;;22.80;99.90;;;;;;4976498;28;20564;-68
2023/06/27 11:18:19;;;;;;;2.30;0.33;;;22.70;99.90;;;;;;4992774;28;20519;-69
2023/06/27 11:20:48;;;;;;;0.27;0.27;;;22.60;99.90;;;;;;4993891;28;20474;-68
2023/06/27 11:23:16;;;;;;;0.53;0.40;;;22.40;99.90;;;;;;4994672;28;20497;-68
2023/06/27 11:25:44;;;;;;;0.30;0.30;;;22.50;99.90;;;;;;4994699;28;20461;-69
2023/06/27 11:28:11;;;;;;;1.03;0.30;;;22.40;99.90;;;;;;4994444;28;20462;-69
2023/06/27 11:30:38;;;;;;;0.47;0.47;;;21.90;99.90;;;;;;4994922;28;20471;-68
2023/06/27 11:33:05;;;;;;;1.20;0.60;;;21.30;99.90;;;;;;4994188;28;20498;-68
2023/06/27 11:35:32;;;;;;;0.30;0.30;;;20.90;99.90;;;;;;4992842;28;20847;-68
2023/06/27 11:38:01;;;;;;;0.30;0.30;;;20.60;99.90;;;;;;4994652;28;20458;-68
2023/06/27 11:40:30;;;;;;;0.80;0.60;;;20.30;99.90;;;;;;4994783;28;20462;-68
2023/06/27 11:43:00;;;;;;;0.77;0.77;;;19.90;99.90;;;;;;4990189;28;20505;-68
2023/06/27 11:45:27;;;;;;;0.30;0.30;;;19.10;99.90;;;;;;4994065;28;20463;-68
2023/06/27 11:47:54;;;;;;;0.63;0.63;;;18.50;99.90;;;;;;4993883;28;20462;-68
2023/06/27 11:50:21;;;;;;;0.60;0.60;;;18.20;99.90;;;;;;4994158;28;20478;-67
2023/06/27 11:52:49;;;;;;;4.10;0.83;;;18.20;99.90;;;;;;4994460;28;20561;-67
2023/06/27 11:55:17;;;;;;;1.90;0.70;;;18.20;99.90;;;;;;4992991;28;20895;-67
2023/06/27 11:57:45;;;;;;;2.73;0.80;;;18.40;99.90;;;;;;4991134;28;20961;-67
2023/06/27 12:00:19;;;;;;;0.80;0.80;;;18.50;99.90;;;;;;4992704;28;20495;-67
2023/06/27 12:02:49;;;;;;;0.47;0.47;;;18.60;99.90;;;;;;4994252;28;20486;-67
2023/06/27 12:05:16;;;;;;;2.67;1.00;;;18.70;99.90;;;;;;4993790;28;20944;-67
2023/06/27 12:07:54;;;;;;;0.50;0.33;;;18.90;99.90;;;;;;4994308;28;20459;-67
2023/06/27 12:10:22;;;;;;;0.80;0.80;;;19.00;99.90;;;;;;4993238;28;20517;-68
2023/06/27 12:12:50;;;;;;;0.37;0.37;;;19.20;99.90;;;;;;4994145;28;20491;-69
2023/06/27 12:15:17;;;;;;;0.50;0.50;;;18.20;99.90;;;;;;4994279;28;20473;-67
2023/06/27 12:17:59;;;;;;;0.67;0.67;;;17.70;99.90;;;;;;4994588;28;20498;-68
2023/06/27 12:20:26;;;;;;;0.67;0.60;;;17.20;99.90;;;;;;4993620;28;20462;-68
2023/06/27 12:22:53;;;;;;;0.97;0.97;;;17.00;99.90;;;;;;4993892;28;21049;-69
2023/06/27 12:25:21;;;;;;;0.67;0.67;;;16.80;99.90;;;;;;4988459;28;20808;-68
2023/06/27 12:27:48;;;;;;;4.53;0.70;;;16.80;99.90;;;;;;4993033;28;20474;-68
2023/06/27 12:30:15;;;;;;;0.80;0.80;;;16.70;99.90;;;;;;4993111;28;20469;-68
2023/06/27 12:32:42;;;;;;;0.70;0.70;;;16.80;99.90;;;;;;4993329;28;20498;-68
2023/06/27 12:35:09;;;;;;;1.03;0.53;;;17.00;99.90;;;;;;4992471;28;20471;-69
2023/06/27 12:37:38;;;;;;;1.50;1.40;;;17.20;99.90;;;;;;4993791;28;20521;-69
2023/06/27 12:43:43;;;;;;;2.50;0.73;;;17.50;99.90;;;;;;4989309;28;20481;-68
2023/06/27 12:46:45;;;;;;;3.33;0.50;;;17.00;99.90;;;;;;4983749;28;21012;-68
2023/06/27 12:52:26;;;;;;;0.60;0.60;;;16.40;99.90;;;;;;4992992;28;20561;-69
2023/06/27 12:55:17;;;;;;;0.87;0.87;;;16.40;99.90;;;;;;4986780;28;20490;-68
2023/06/27 12:58:02;;;;;;;0.93;0.80;;;16.40;99.90;;;;;;4973501;28;20462;-69
2023/06/27 13:00:49;;;;;;;0.50;0.50;;;16.40;99.90;;;;;;4974249;28;20809;-69
2023/06/27 13:03:48;;;;;;;;;;;;;;;;;;;;;
2023/06/27 13:09:40;;;;;;;1.80;1.10;;;17.10;99.90;;;;;;4987369;28;20501;-69
2023/06/27 13:12:42;;;;;;;0.40;0.40;;;17.50;99.90;;;;;;4973782;28;20491;-68
2023/06/27 13:15:32;;;;;;;0.90;0.90;;;18.00;99.90;;;;;;4972886;28;20991;-68
2023/06/27 13:18:24;;;;;;;0.60;0.60;;;18.40;99.90;;;;;;4973487;28;20471;-68
2023/06/27 13:21:11;;;;;;;1.10;1.10;;;18.70;99.90;;;;;;4972935;28;20472;-68
2023/06/27 13:24:00;;;;;;;0.90;0.90;;;18.70;99.90;;;;;;4988372;28;20459;-68
2023/06/27 13:26:32;;;;;;;0.80;0.80;;;18.60;99.90;;;;;;4973380;28;20471;-68
2023/06/27 13:28:58;;;;;;;0.60;0.60;;;18.50;99.90;;;;;;4968754;28;20486;-69
2023/06/27 13:31:25;;;;;;;0.57;0.57;;;18.50;99.90;;;;;;4974706;28;20488;-70
2023/06/27 13:33:53;;;;;;;1.10;1.00;;;18.50;99.90;;;;;;4974986;28;20487;-68
2023/06/27 13:36:20;;;;;;;1.23;0.67;;;18.60;99.90;;;;;;4978900;28;20478;-69
2023/06/27 13:38:47;;;;;;;0.70;0.70;;;18.70;99.90;;;;;;4994210;28;20459;-69
2023/06/27 13:41:13;;;;;;;3.80;0.90;;;19.00;99.90;;;;;;4994852;28;20471;-69
2023/06/27 13:43:40;;;;;;;0.70;0.70;;;19.10;99.90;;;;;;4992349;28;20467;-70
2023/06/27 13:46:07;;;;;;;0.50;0.50;;;19.30;99.90;;;;;;4996494;28;20465;-69
2023/06/27 13:48:34;;;;;;;1.07;0.87;;;19.40;99.90;;;;;;4996566;28;20923;-69
2023/06/27 13:51:02;;;;;;;0.80;0.63;;;19.60;99.90;;;;;;4996715;28;20629;-71
2023/06/27 13:53:29;;;;;;;1.40;1.00;;;19.80;99.90;;;;;;4999198;28;20555;-70
2023/06/27 13:55:56;;;;;;;0.50;0.50;;;20.00;99.90;;;;;;4999517;28;20476;-70
2023/06/27 13:58:24;;;;;;;0.90;0.90;;;20.10;99.90;;;;;;4998289;28;20470;-69
2023/06/27 14:00:51;;;;;;;1.33;0.97;;;20.20;99.90;;;;;;4999288;28;20493;-71
2023/06/27 14:03:18;;;;;;;0.90;0.90;;;20.30;99.90;;;;;;4999320;28;20513;-70
2023/06/27 14:05:45;;;;;;;2.17;1.30;;;20.40;99.90;;;;;;4999090;28;20477;-72
2023/06/27 14:08:13;;;;;;;0.50;0.50;;;20.60;99.90;;;;;;4999381;28;20463;-71
2023/06/27 14:10:40;;;;;;;2.10;0.90;;;20.60;99.90;;;;;;4998928;28;20473;-72
2023/06/27 14:13:08;;;;;;;1.03;0.80;;;20.70;99.90;;;;;;4995285;28;20494;-72
2023/06/27 14:15:35;;;;;;;0.83;0.83;;;20.70;99.90;;;;;;4997500;28;20483;-71
2023/06/27 14:18:02;;;;;;;2.17;1.00;;;20.80;99.90;;;;;;5000788;28;20469;-71
2023/06/27 14:20:29;;;;;;;1.20;0.53;;;20.90;99.90;;;;;;4998517;28;20553;-72
2023/06/27 14:22:58;;;;;;;0.63;0.63;;;20.90;99.90;;;;;;4998624;28;21002;-71
2023/06/27 14:25:27;;;;;;;2.20;0.93;;;21.10;99.90;;;;;;4999026;28;20454;-72
2023/06/27 14:27:54;;;;;;;0.40;0.40;;;21.20;99.90;;;;;;4999141;28;20477;-72
2023/06/27 14:30:20;;;;;;;0.67;0.67;;;21.10;99.90;;;;;;4998736;28;20533;-70
2023/06/27 14:32:49;;;;;;;0.53;0.53;;;21.10;99.90;;;;;;4995670;28;21048;-72
2023/06/27 14:35:17;;;;;;;2.37;0.50;;;20.90;99.90;;;;;;4996601;28;20606;-70
2023/06/27 14:37:44;;;;;;;0.77;0.77;;;21.00;99.90;;;;;;5000261;28;20493;-69
2023/06/27 14:40:12;;;;;;;1.30;0.70;;;20.90;99.90;;;;;;4998393;28;20469;-70
2023/06/27 14:42:41;;;;;;;0.93;0.70;;;21.10;99.90;;;;;;4995241;28;20511;-70
2023/06/27 14:45:09;;;;;;;0.30;0.30;;;21.20;99.90;;;;;;4998001;28;20465;-71
2023/06/27 14:47:36;;;;;;;0.43;0.43;;;21.40;99.90;;;;;;4996520;28;20534;-70
2023/06/27 14:50:03;;;;;;;2.00;0.47;;;21.60;99.90;;;;;;4997434;28;20462;-68
2023/06/27 14:52:29;;;;;;;0.70;0.70;;;21.90;99.90;;;;;;4997352;28;20486;-68
2023/06/27 14:54:56;;;;;;;0.60;0.53;;;21.80;99.90;;;;;;4995656;28;20585;-70
2023/06/27 14:57:23;;;;;;;0.30;0.30;;;21.60;99.90;;;;;;4996491;28;20458;-69
2023/06/27 14:59:51;;;;;;;0.77;0.63;;;21.70;99.90;;;;;;4992823;28;20467;-68
2023/06/27 15:02:18;;;;;;;0.57;0.57;;;21.80;99.90;;;;;;4992197;28;20491;-68
2023/06/27 15:04:45;;;;;;;0.57;0.57;;;21.90;99.90;;;;;;4989588;28;21142;-69
2023/06/27 15:07:11;;;;;;;0.53;0.53;;;21.80;99.90;;;;;;4984179;28;20817;-68
2023/06/27 15:09:38;;;;;;;0.50;0.50;;;22.00;99.90;;;;;;4986892;28;20463;-68
2023/06/27 15:12:06;;;;;;;0.90;0.90;;;21.90;99.90;;;;;;4991225;28;20479;-68
2023/06/27 15:14:32;;;;;;;1.47;0.80;;;22.00;99.90;;;;;;4990404;28;20491;-68
2023/06/27 15:17:00;;;;;;;1.90;0.60;;;22.10;99.90;;;;;;4991008;28;20852;-67
2023/06/27 15:19:27;;;;;;;0.60;0.60;;;22.10;99.90;;;;;;4989015;28;20472;-67
2023/06/27 15:21:55;;;;;;;0.87;0.60;;;22.10;99.90;;;;;;4989908;28;20491;-68
2023/06/27 15:24:22;;;;;;;1.40;0.70;;;22.00;99.90;;;;;;4990043;28;20562;-68
2023/06/27 15:26:49;;;;;;;1.07;0.67;;;22.00;99.90;;;;;;4990908;28;20470;-68
2023/06/27 15:29:15;;;;;;;2.43;0.77;;;22.00;99.90;;;;;;4990367;28;20991;-68
2023/06/27 15:31:42;;;;;;;1.00;1.00;;;22.10;99.90;;;;;;4990600;28;20963;-68
2023/06/27 15:34:10;;;;;;;1.90;1.03;;;22.10;99.90;;;;;;4989494;28;20492;-68
2023/06/27 15:36:37;;;;;;;0.80;0.80;;;22.10;99.90;;;;;;4990546;28;20558;-68
2023/06/27 15:39:04;;;;;;;0.60;0.60;;;21.80;99.90;;;;;;4991113;28;20529;-68
2023/06/27 15:41:31;;;;;;;0.90;0.90;;;21.40;99.90;;;;;;4991051;28;20866;-68
2023/06/27 15:43:58;;;;;;;0.50;0.50;;;21.40;99.90;;;;;;4987209;28;20459;-68
2023/06/27 15:46:24;;;;;;;0.87;0.87;;;21.50;99.90;;;;;;4991064;28;20906;-68
2023/06/27 15:48:51;;;;;;;0.93;0.67;;;21.50;99.90;;;;;;4990269;28;20471;-68
2023/06/27 15:51:19;;;;;;;0.77;0.63;;;21.50;99.90;;;;;;4990374;28;20996;-68
2023/06/27 15:53:46;;;;;;;1.60;0.60;;;21.50;99.90;;;;;;4990630;28;20470;-68
2023/06/27 15:56:13;;;;;;;1.23;0.83;;;21.40;99.90;;;;;;4990984;28;20474;-69
2023/06/27 15:58:39;;;;;;;0.70;0.70;;;21.30;99.90;;;;;;4990915;28;20569;-67
2023/06/27 16:01:06;;;;;;;0.67;0.67;;;21.10;99.90;;;;;;4991327;28;20474;-67
2023/06/27 16:03:33;;;;;;;1.70;0.70;;;21.20;99.90;;;;;;4990022;28;20475;-67
2023/06/27 16:06:00;;;;;;;3.90;1.37;;;21.10;99.90;;;;;;4992273;28;20488;-67
2023/06/27 16:08:28;;;;;;;0.63;0.63;;;21.10;99.90;;;;;;4994206;28;20982;-68
2023/06/27 16:10:54;;;;;;;1.50;0.90;;;21.30;99.90;;;;;;4994704;28;20546;-68
2023/06/27 16:13:21;;;;;;;0.73;0.67;;;21.50;99.90;;;;;;4993988;28;20487;-68
2023/06/27 16:15:48;;;;;;;0.70;0.70;;;21.60;99.90;;;;;;4993914;28;20486;-67
2023/06/27 16:18:15;;;;;;;1.57;1.10;;;21.80;99.90;;;;;;4994322;28;20978;-68
2023/06/27 16:20:42;;;;;;;0.93;0.60;;;21.80;99.90;;;;;;4992836;28;20463;-66
2023/06/27 16:23:09;;;;;;;0.70;0.70;;;21.90;99.90;;;;;;4994010;28;20488;-66
2023/06/27 16:25:37;;;;;;;1.33;0.70;;;22.00;99.90;;;;;;4991735;28;20515;-67
2023/06/27 16:28:04;;;;;;;0.63;0.63;;;21.90;99.90;;;;;;4993192;28;20942;-67
2023/06/27 16:30:31;;;;;;;0.90;0.90;;;21.80;99.90;;;;;;4993754;28;20466;-66
2023/06/27 16:32:58;;;;;;;2.97;1.30;;;21.80;99.90;;;;;;4993665;28;20571;-66
2023/06/27 16:35:27;;;;;;;0.67;0.67;;;21.50;99.90;;;;;;4993147;28;20501;-67
2023/06/27 16:37:55;;;;;;;0.40;0.40;;;21.30;99.90;;;;;;4993278;28;20522;-67
2023/06/27 16:40:21;;;;;;;1.80;1.37;;;21.30;99.90;;;;;;4992579;28;20502;-68
2023/06/27 16:42:50;;;;;;;0.90;0.90;;;21.40;99.90;;;;;;4990133;28;20490;-66
2023/06/27 16:45:16;;;;;;;1.80;0.73;;;21.50;99.90;;;;;;4992791;28;20461;-66
2023/06/27 16:47:43;;;;;;;0.50;0.50;;;21.40;99.90;;;;;;4993604;28;20982;-67
2023/06/27 16:50:11;;;;;;;1.20;1.20;;;21.30;99.90;;;;;;4993416;28;20876;-66
2023/06/27 16:52:38;;;;;;;1.70;1.03;;;21.30;99.90;;;;;;4991571;28;20653;-67
2023/06/27 16:55:05;;;;;;;1.23;0.50;;;21.30;99.90;;;;;;4992798;28;20488;-67
2023/06/27 16:57:35;;;;;;;0.60;0.60;;;21.30;99.90;;;;;;4992597;28;20463;-67
2023/06/27 17:00:06;;;;;;;1.47;0.80;;;21.20;99.90;;;;;;4992660;28;20586;-67
2023/06/27 17:02:33;;;;;;;0.80;0.80;;;21.30;99.90;;;;;;4992862;28;20489;-66
2023/06/27 17:05:00;;;;;;;0.80;0.80;;;21.30;99.90;;;;;;4992325;28;20460;-66
2023/06/27 17:07:27;;;;;;;0.93;0.93;;;21.30;99.90;;;;;;4991585;28;20474;-67